sensor_id;sensor_type;location;lat;lon;timestamp;P1;durP1;ratioP1;P2;durP2;ratioP2
26261;SDS011;13988;52.446;13.280;2024-01-16T00:02:21;3.53;;;1.33;;
26261;SDS011;13988;52.446;13.280;2024-01-16T00:04:47;0.93;;;0.63;;
26261;SDS011;13988;52.446;13.280;2024-01-16T00:07:12;1.27;;;1.17;;
26261;SDS011;13988;52.446;13.280;2024-01-16T00:09:38;0.93;;;0.52;;
26261;SDS011;13988;52.446;13.280;2024-01-16T00:12:04;0.70;;;0.70;;
26261;SDS011;13988;52.446;13.280;2024-01-16T00:14:29;2.25;;;0.95;;
26261;SDS011;13988;52.446;13.280;2024-01-16T00:16:55;1.05;;;0.95;;
26261;SDS011;13988;52.446;13.280;2024-01-16T00:19:21;1.75;;;0.70;;
26261;SDS011;13988;52.446;13.280;2024-01-16T00:21:46;1.50;;;0.68;;
26261;SDS011;13988;52.446;13.280;2024-01-16T00:24:13;1.05;;;0.98;;
26261;SDS011;13988;52.446;13.280;2024-01-16T00:26:39;3.35;;;0.82;;
26261;SDS011;13988;52.446;13.280;2024-01-16T00:29:04;1.75;;;0.80;;
26261;SDS011;13988;52.446;13.280;2024-01-16T00:31:30;3.70;;;1.13;;
26261;SDS011;13988;52.446;13.280;2024-01-16T00:33:56;0.88;;;0.88;;
26261;SDS011;13988;52.446;13.280;2024-01-16T00:36:22;2.05;;;0.65;;
26261;SDS011;13988;52.446;13.280;2024-01-16T00:38:47;1.10;;;1.00;;
26261;SDS011;13988;52.446;13.280;2024-01-16T00:41:13;0.55;;;0.55;;
26261;SDS011;13988;52.446;13.280;2024-01-16T00:43:45;4.70;;;0.93;;
26261;SDS011;13988;52.446;13.280;2024-01-16T00:46:10;2.28;;;1.00;;
26261;SDS011;13988;52.446;13.280;2024-01-16T00:48:36;8.02;;;0.60;;
26261;SDS011;13988;52.446;13.280;2024-01-16T00:51:02;0.60;;;0.60;;
26261;SDS011;13988;52.446;13.280;2024-01-16T00:53:27;0.95;;;0.43;;
26261;SDS011;13988;52.446;13.280;2024-01-16T00:55:53;2.70;;;1.20;;
26261;SDS011;13988;52.446;13.280;2024-01-16T00:58:22;0.40;;;0.40;;
26261;SDS011;13988;52.446;13.280;2024-01-16T01:00:48;0.40;;;0.40;;
26261;SDS011;13988;52.446;13.280;2024-01-16T01:03:14;1.13;;;1.10;;
26261;SDS011;13988;52.446;13.280;2024-01-16T01:05:40;6.32;;;0.90;;
26261;SDS011;13988;52.446;13.280;2024-01-16T01:08:05;0.90;;;0.88;;
26261;SDS011;13988;52.446;13.280;2024-01-16T01:10:31;1.05;;;0.80;;
26261;SDS011;13988;52.446;13.280;2024-01-16T01:12:57;2.65;;;0.93;;
26261;SDS011;13988;52.446;13.280;2024-01-16T01:15:22;0.52;;;0.47;;
26261;SDS011;13988;52.446;13.280;2024-01-16T01:17:48;0.22;;;0.22;;
26261;SDS011;13988;52.446;13.280;2024-01-16T01:20:15;0.32;;;0.32;;
26261;SDS011;13988;52.446;13.280;2024-01-16T01:22:42;0.65;;;0.52;;
26261;SDS011;13988;52.446;13.280;2024-01-16T01:25:09;0.43;;;0.43;;
26261;SDS011;13988;52.446;13.280;2024-01-16T01:27:37;0.45;;;0.43;;
26261;SDS011;13988;52.446;13.280;2024-01-16T01:30:06;1.25;;;1.02;;
26261;SDS011;13988;52.446;13.280;2024-01-16T01:32:35;0.35;;;0.35;;
26261;SDS011;13988;52.446;13.280;2024-01-16T01:35:02;0.10;;;0.10;;
26261;SDS011;13988;52.446;13.280;2024-01-16T01:37:28;0.22;;;0.22;;
26261;SDS011;13988;52.446;13.280;2024-01-16T01:39:53;1.45;;;0.40;;
26261;SDS011;13988;52.446;13.280;2024-01-16T01:42:19;3.65;;;0.77;;
26261;SDS011;13988;52.446;13.280;2024-01-16T01:44:44;4.85;;;1.08;;
26261;SDS011;13988;52.446;13.280;2024-01-16T01:47:10;0.65;;;0.65;;
26261;SDS011;13988;52.446;13.280;2024-01-16T01:49:36;0.93;;;0.93;;
26261;SDS011;13988;52.446;13.280;2024-01-16T01:52:03;2.08;;;0.95;;
26261;SDS011;13988;52.446;13.280;2024-01-16T01:54:29;4.70;;;1.10;;
26261;SDS011;13988;52.446;13.280;2024-01-16T01:56:57;0.82;;;0.82;;
26261;SDS011;13988;52.446;13.280;2024-01-16T01:59:23;0.77;;;0.40;;
26261;SDS011;13988;52.446;13.280;2024-01-16T02:01:49;0.77;;;0.77;;
26261;SDS011;13988;52.446;13.280;2024-01-16T02:04:20;0.50;;;0.50;;
26261;SDS011;13988;52.446;13.280;2024-01-16T02:06:47;2.33;;;1.48;;
26261;SDS011;13988;52.446;13.280;2024-01-16T02:09:13;0.43;;;0.40;;
26261;SDS011;13988;52.446;13.280;2024-01-16T02:11:39;2.50;;;0.68;;
26261;SDS011;13988;52.446;13.280;2024-01-16T02:14:08;0.40;;;0.40;;
26261;SDS011;13988;52.446;13.280;2024-01-16T02:16:38;1.75;;;1.30;;
26261;SDS011;13988;52.446;13.280;2024-01-16T02:19:05;0.35;;;0.32;;
26261;SDS011;13988;52.446;13.280;2024-01-16T02:21:49;0.70;;;0.40;;
26261;SDS011;13988;52.446;13.280;2024-01-16T02:24:18;1.10;;;0.68;;
26261;SDS011;13988;52.446;13.280;2024-01-16T02:26:44;4.35;;;1.67;;
26261;SDS011;13988;52.446;13.280;2024-01-16T02:29:10;0.32;;;0.32;;
26261;SDS011;13988;52.446;13.280;2024-01-16T02:31:36;0.52;;;0.45;;
26261;SDS011;13988;52.446;13.280;2024-01-16T02:34:01;0.40;;;0.40;;
26261;SDS011;13988;52.446;13.280;2024-01-16T02:36:29;1.00;;;0.50;;
26261;SDS011;13988;52.446;13.280;2024-01-16T02:38:54;0.22;;;0.22;;
26261;SDS011;13988;52.446;13.280;2024-01-16T02:41:20;1.63;;;0.60;;
26261;SDS011;13988;52.446;13.280;2024-01-16T02:43:46;2.53;;;1.13;;
26261;SDS011;13988;52.446;13.280;2024-01-16T02:46:12;0.40;;;0.40;;
26261;SDS011;13988;52.446;13.280;2024-01-16T02:48:41;2.97;;;0.50;;
26261;SDS011;13988;52.446;13.280;2024-01-16T02:51:07;0.98;;;0.98;;
26261;SDS011;13988;52.446;13.280;2024-01-16T02:53:33;2.25;;;0.50;;
26261;SDS011;13988;52.446;13.280;2024-01-16T02:55:59;0.60;;;0.47;;
26261;SDS011;13988;52.446;13.280;2024-01-16T02:58:26;0.63;;;0.35;;
26261;SDS011;13988;52.446;13.280;2024-01-16T03:00:52;0.40;;;0.40;;
26261;SDS011;13988;52.446;13.280;2024-01-16T03:03:18;1.35;;;0.93;;
26261;SDS011;13988;52.446;13.280;2024-01-16T03:05:44;0.40;;;0.40;;
26261;SDS011;13988;52.446;13.280;2024-01-16T03:08:10;0.70;;;0.70;;
26261;SDS011;13988;52.446;13.280;2024-01-16T03:10:35;1.00;;;0.77;;
26261;SDS011;13988;52.446;13.280;2024-01-16T03:13:01;1.85;;;1.00;;
26261;SDS011;13988;52.446;13.280;2024-01-16T03:15:27;1.85;;;1.27;;
26261;SDS011;13988;52.446;13.280;2024-01-16T03:17:55;1.15;;;0.68;;
26261;SDS011;13988;52.446;13.280;2024-01-16T03:20:21;4.22;;;0.85;;
26261;SDS011;13988;52.446;13.280;2024-01-16T03:22:48;0.50;;;0.50;;
26261;SDS011;13988;52.446;13.280;2024-01-16T03:25:14;0.68;;;0.68;;
26261;SDS011;13988;52.446;13.280;2024-01-16T03:27:39;0.60;;;0.52;;
26261;SDS011;13988;52.446;13.280;2024-01-16T03:30:05;4.60;;;0.95;;
26261;SDS011;13988;52.446;13.280;2024-01-16T03:32:33;0.60;;;0.60;;
26261;SDS011;13988;52.446;13.280;2024-01-16T03:34:59;1.35;;;0.70;;
26261;SDS011;13988;52.446;13.280;2024-01-16T03:37:25;1.98;;;1.25;;
26261;SDS011;13988;52.446;13.280;2024-01-16T03:39:50;1.35;;;0.80;;
26261;SDS011;13988;52.446;13.280;2024-01-16T03:42:16;1.17;;;0.70;;
26261;SDS011;13988;52.446;13.280;2024-01-16T03:44:42;0.40;;;0.40;;
26261;SDS011;13988;52.446;13.280;2024-01-16T03:47:07;0.98;;;0.93;;
26261;SDS011;13988;52.446;13.280;2024-01-16T03:49:34;0.95;;;0.52;;
26261;SDS011;13988;52.446;13.280;2024-01-16T03:52:00;0.60;;;0.60;;
26261;SDS011;13988;52.446;13.280;2024-01-16T03:54:25;1.42;;;0.88;;
26261;SDS011;13988;52.446;13.280;2024-01-16T03:56:51;0.35;;;0.35;;
26261;SDS011;13988;52.446;13.280;2024-01-16T03:59:18;0.88;;;0.88;;
26261;SDS011;13988;52.446;13.280;2024-01-16T04:01:43;0.40;;;0.40;;
26261;SDS011;13988;52.446;13.280;2024-01-16T04:04:10;0.57;;;0.57;;
26261;SDS011;13988;52.446;13.280;2024-01-16T04:06:36;0.88;;;0.77;;
26261;SDS011;13988;52.446;13.280;2024-01-16T04:09:02;1.63;;;0.88;;
26261;SDS011;13988;52.446;13.280;2024-01-16T04:11:29;2.47;;;1.77;;
26261;SDS011;13988;52.446;13.280;2024-01-16T04:13:54;7.85;;;1.45;;
26261;SDS011;13988;52.446;13.280;2024-01-16T04:16:20;0.93;;;0.90;;
26261;SDS011;13988;52.446;13.280;2024-01-16T04:18:46;0.50;;;0.50;;
26261;SDS011;13988;52.446;13.280;2024-01-16T04:21:12;0.68;;;0.68;;
26261;SDS011;13988;52.446;13.280;2024-01-16T04:23:38;1.15;;;0.95;;
26261;SDS011;13988;52.446;13.280;2024-01-16T04:26:04;2.97;;;1.13;;
26261;SDS011;13988;52.446;13.280;2024-01-16T04:28:29;2.50;;;1.05;;
26261;SDS011;13988;52.446;13.280;2024-01-16T04:30:55;3.47;;;0.65;;
26261;SDS011;13988;52.446;13.280;2024-01-16T04:33:21;0.70;;;0.70;;
26261;SDS011;13988;52.446;13.280;2024-01-16T04:35:47;2.17;;;0.88;;
26261;SDS011;13988;52.446;13.280;2024-01-16T04:38:12;2.00;;;1.13;;
26261;SDS011;13988;52.446;13.280;2024-01-16T04:40:38;2.58;;;1.13;;
26261;SDS011;13988;52.446;13.280;2024-01-16T04:43:04;2.10;;;1.33;;
26261;SDS011;13988;52.446;13.280;2024-01-16T04:45:30;1.55;;;0.60;;
26261;SDS011;13988;52.446;13.280;2024-01-16T04:47:55;0.65;;;0.63;;
26261;SDS011;13988;52.446;13.280;2024-01-16T04:50:21;0.93;;;0.80;;
26261;SDS011;13988;52.446;13.280;2024-01-16T04:52:47;1.98;;;1.48;;
26261;SDS011;13988;52.446;13.280;2024-01-16T04:55:13;2.70;;;0.90;;
26261;SDS011;13988;52.446;13.280;2024-01-16T04:57:39;0.50;;;0.50;;
26261;SDS011;13988;52.446;13.280;2024-01-16T05:00:05;0.70;;;0.60;;
26261;SDS011;13988;52.446;13.280;2024-01-16T05:02:32;0.52;;;0.50;;
26261;SDS011;13988;52.446;13.280;2024-01-16T05:04:59;1.08;;;0.98;;
26261;SDS011;13988;52.446;13.280;2024-01-16T05:07:24;0.90;;;0.90;;
26261;SDS011;13988;52.446;13.280;2024-01-16T05:09:51;3.72;;;1.20;;
26261;SDS011;13988;52.446;13.280;2024-01-16T05:12:17;3.25;;;1.48;;
26261;SDS011;13988;52.446;13.280;2024-01-16T05:14:42;0.63;;;0.63;;
26261;SDS011;13988;52.446;13.280;2024-01-16T05:17:08;2.70;;;1.27;;
26261;SDS011;13988;52.446;13.280;2024-01-16T05:19:34;0.95;;;0.90;;
26261;SDS011;13988;52.446;13.280;2024-01-16T05:21:59;1.30;;;0.80;;
26261;SDS011;13988;52.446;13.280;2024-01-16T05:24:25;7.47;;;1.58;;
26261;SDS011;13988;52.446;13.280;2024-01-16T05:26:50;0.90;;;0.50;;
26261;SDS011;13988;52.446;13.280;2024-01-16T05:29:17;1.17;;;0.85;;
26261;SDS011;13988;52.446;13.280;2024-01-16T05:31:43;1.75;;;0.95;;
26261;SDS011;13988;52.446;13.280;2024-01-16T05:34:09;1.50;;;1.02;;
26261;SDS011;13988;52.446;13.280;2024-01-16T05:36:35;0.60;;;0.60;;
26261;SDS011;13988;52.446;13.280;2024-01-16T05:39:01;1.63;;;0.82;;
26261;SDS011;13988;52.446;13.280;2024-01-16T05:41:27;3.33;;;1.05;;
26261;SDS011;13988;52.446;13.280;2024-01-16T05:43:57;0.82;;;0.82;;
26261;SDS011;13988;52.446;13.280;2024-01-16T05:46:22;2.78;;;1.20;;
26261;SDS011;13988;52.446;13.280;2024-01-16T05:48:48;5.13;;;0.70;;
26261;SDS011;13988;52.446;13.280;2024-01-16T05:51:14;2.92;;;0.95;;
26261;SDS011;13988;52.446;13.280;2024-01-16T05:53:39;0.95;;;0.85;;
26261;SDS011;13988;52.446;13.280;2024-01-16T05:56:05;5.18;;;0.90;;
26261;SDS011;13988;52.446;13.280;2024-01-16T05:58:31;1.20;;;0.88;;
26261;SDS011;13988;52.446;13.280;2024-01-16T06:01:00;1.80;;;1.00;;
26261;SDS011;13988;52.446;13.280;2024-01-16T06:03:26;1.73;;;1.05;;
26261;SDS011;13988;52.446;13.280;2024-01-16T06:05:51;7.75;;;1.23;;
26261;SDS011;13988;52.446;13.280;2024-01-16T06:08:17;1.05;;;0.95;;
26261;SDS011;13988;52.446;13.280;2024-01-16T06:10:45;1.08;;;1.00;;
26261;SDS011;13988;52.446;13.280;2024-01-16T06:13:10;2.22;;;1.88;;
26261;SDS011;13988;52.446;13.280;2024-01-16T06:15:36;5.68;;;1.98;;
26261;SDS011;13988;52.446;13.280;2024-01-16T06:18:01;8.15;;;1.92;;
26261;SDS011;13988;52.446;13.280;2024-01-16T06:20:27;0.68;;;0.68;;
26261;SDS011;13988;52.446;13.280;2024-01-16T06:22:54;0.85;;;0.85;;
26261;SDS011;13988;52.446;13.280;2024-01-16T06:25:19;2.38;;;2.10;;
26261;SDS011;13988;52.446;13.280;2024-01-16T06:27:45;2.67;;;1.40;;
26261;SDS011;13988;52.446;13.280;2024-01-16T06:30:11;2.08;;;1.48;;
26261;SDS011;13988;52.446;13.280;2024-01-16T06:32:37;3.30;;;1.30;;
26261;SDS011;13988;52.446;13.280;2024-01-16T06:35:02;4.32;;;0.82;;
26261;SDS011;13988;52.446;13.280;2024-01-16T06:37:28;1.40;;;1.00;;
26261;SDS011;13988;52.446;13.280;2024-01-16T06:39:53;1.20;;;1.05;;
26261;SDS011;13988;52.446;13.280;2024-01-16T06:42:19;2.20;;;1.30;;
26261;SDS011;13988;52.446;13.280;2024-01-16T06:44:45;1.08;;;0.98;;
26261;SDS011;13988;52.446;13.280;2024-01-16T06:47:11;3.45;;;1.58;;
26261;SDS011;13988;52.446;13.280;2024-01-16T06:49:36;2.28;;;1.92;;
26261;SDS011;13988;52.446;13.280;2024-01-16T06:52:02;1.63;;;1.52;;
26261;SDS011;13988;52.446;13.280;2024-01-16T06:54:28;1.33;;;1.10;;
26261;SDS011;13988;52.446;13.280;2024-01-16T06:56:54;3.05;;;1.10;;
26261;SDS011;13988;52.446;13.280;2024-01-16T06:59:19;1.50;;;1.40;;
26261;SDS011;13988;52.446;13.280;2024-01-16T07:01:46;2.22;;;2.03;;
26261;SDS011;13988;52.446;13.280;2024-01-16T07:04:12;3.85;;;1.80;;
26261;SDS011;13988;52.446;13.280;2024-01-16T07:06:39;3.95;;;2.28;;
26261;SDS011;13988;52.446;13.280;2024-01-16T07:09:05;1.95;;;0.95;;
26261;SDS011;13988;52.446;13.280;2024-01-16T07:11:30;1.88;;;1.30;;
26261;SDS011;13988;52.446;13.280;2024-01-16T07:13:56;5.68;;;1.40;;
26261;SDS011;13988;52.446;13.280;2024-01-16T07:16:22;3.25;;;1.50;;
26261;SDS011;13988;52.446;13.280;2024-01-16T07:18:48;3.05;;;1.58;;
26261;SDS011;13988;52.446;13.280;2024-01-16T07:21:17;1.95;;;1.20;;
26261;SDS011;13988;52.446;13.280;2024-01-16T07:23:43;2.25;;;1.75;;
26261;SDS011;13988;52.446;13.280;2024-01-16T07:26:09;3.05;;;1.70;;
26261;SDS011;13988;52.446;13.280;2024-01-16T07:28:35;2.47;;;1.73;;
26261;SDS011;13988;52.446;13.280;2024-01-16T07:31:01;2.10;;;1.50;;
26261;SDS011;13988;52.446;13.280;2024-01-16T07:33:26;2.42;;;1.48;;
26261;SDS011;13988;52.446;13.280;2024-01-16T07:35:52;1.83;;;1.73;;
26261;SDS011;13988;52.446;13.280;2024-01-16T07:38:18;1.92;;;1.33;;
26261;SDS011;13988;52.446;13.280;2024-01-16T07:40:44;2.55;;;1.17;;
26261;SDS011;13988;52.446;13.280;2024-01-16T07:43:09;5.78;;;1.40;;
26261;SDS011;13988;52.446;13.280;2024-01-16T07:45:35;3.90;;;2.00;;
26261;SDS011;13988;52.446;13.280;2024-01-16T07:48:00;1.95;;;1.40;;
26261;SDS011;13988;52.446;13.280;2024-01-16T07:50:26;2.65;;;1.92;;
26261;SDS011;13988;52.446;13.280;2024-01-16T07:52:52;2.08;;;1.77;;
26261;SDS011;13988;52.446;13.280;2024-01-16T07:55:17;2.85;;;1.88;;
26261;SDS011;13988;52.446;13.280;2024-01-16T07:57:43;7.80;;;2.78;;
26261;SDS011;13988;52.446;13.280;2024-01-16T08:00:09;2.85;;;2.35;;
26261;SDS011;13988;52.446;13.280;2024-01-16T08:02:38;1.70;;;1.60;;
26261;SDS011;13988;52.446;13.280;2024-01-16T08:05:04;5.85;;;2.17;;
26261;SDS011;13988;52.446;13.280;2024-01-16T08:07:30;1.90;;;1.80;;
26261;SDS011;13988;52.446;13.280;2024-01-16T08:09:56;4.60;;;2.03;;
26261;SDS011;13988;52.446;13.280;2024-01-16T08:12:22;6.38;;;2.30;;
26261;SDS011;13988;52.446;13.280;2024-01-16T08:14:47;7.88;;;2.38;;
26261;SDS011;13988;52.446;13.280;2024-01-16T08:17:13;2.55;;;2.10;;
26261;SDS011;13988;52.446;13.280;2024-01-16T08:19:39;5.97;;;2.25;;
26261;SDS011;13988;52.446;13.280;2024-01-16T08:22:05;7.65;;;3.38;;
26261;SDS011;13988;52.446;13.280;2024-01-16T08:24:31;5.07;;;2.80;;
26261;SDS011;13988;52.446;13.280;2024-01-16T08:26:57;9.07;;;4.20;;
26261;SDS011;13988;52.446;13.280;2024-01-16T08:29:23;9.43;;;3.80;;
26261;SDS011;13988;52.446;13.280;2024-01-16T08:31:49;3.60;;;2.75;;
26261;SDS011;13988;52.446;13.280;2024-01-16T08:34:17;21.02;;;3.35;;
26261;SDS011;13988;52.446;13.280;2024-01-16T08:36:43;10.77;;;2.22;;
26261;SDS011;13988;52.446;13.280;2024-01-16T08:39:09;4.40;;;3.15;;
26261;SDS011;13988;52.446;13.280;2024-01-16T08:41:35;4.70;;;2.17;;
26261;SDS011;13988;52.446;13.280;2024-01-16T08:44:01;10.07;;;3.92;;
26261;SDS011;13988;52.446;13.280;2024-01-16T08:46:27;3.13;;;2.10;;
26261;SDS011;13988;52.446;13.280;2024-01-16T08:48:52;11.25;;;4.88;;
26261;SDS011;13988;52.446;13.280;2024-01-16T08:51:19;7.93;;;4.30;;
26261;SDS011;13988;52.446;13.280;2024-01-16T08:53:45;5.25;;;3.22;;
26261;SDS011;13988;52.446;13.280;2024-01-16T08:56:11;10.98;;;4.38;;
26261;SDS011;13988;52.446;13.280;2024-01-16T08:58:37;5.22;;;3.70;;
26261;SDS011;13988;52.446;13.280;2024-01-16T09:01:03;2.85;;;2.03;;
26261;SDS011;13988;52.446;13.280;2024-01-16T09:03:33;4.57;;;2.47;;
26261;SDS011;13988;52.446;13.280;2024-01-16T09:05:59;2.83;;;2.50;;
26261;SDS011;13988;52.446;13.280;2024-01-16T09:08:25;19.30;;;6.75;;
26261;SDS011;13988;52.446;13.280;2024-01-16T09:10:52;10.63;;;5.57;;
26261;SDS011;13988;52.446;13.280;2024-01-16T09:13:18;7.55;;;3.17;;
26261;SDS011;13988;52.446;13.280;2024-01-16T09:15:45;21.65;;;5.93;;
26261;SDS011;13988;52.446;13.280;2024-01-16T09:18:12;6.05;;;2.60;;
26261;SDS011;13988;52.446;13.280;2024-01-16T09:20:37;2.80;;;2.60;;
26261;SDS011;13988;52.446;13.280;2024-01-16T09:23:03;7.60;;;3.25;;
26261;SDS011;13988;52.446;13.280;2024-01-16T09:25:29;4.07;;;3.15;;
26261;SDS011;13988;52.446;13.280;2024-01-16T09:27:55;7.05;;;3.50;;
26261;SDS011;13988;52.446;13.280;2024-01-16T09:30:21;2.92;;;2.25;;
26261;SDS011;13988;52.446;13.280;2024-01-16T09:32:48;5.93;;;4.60;;
26261;SDS011;13988;52.446;13.280;2024-01-16T09:35:13;6.05;;;3.72;;
26261;SDS011;13988;52.446;13.280;2024-01-16T09:37:39;11.18;;;4.10;;
26261;SDS011;13988;52.446;13.280;2024-01-16T09:40:05;4.68;;;2.92;;
26261;SDS011;13988;52.446;13.280;2024-01-16T09:42:32;5.78;;;3.42;;
26261;SDS011;13988;52.446;13.280;2024-01-16T09:44:58;3.92;;;2.90;;
26261;SDS011;13988;52.446;13.280;2024-01-16T09:47:27;11.48;;;3.65;;
26261;SDS011;13988;52.446;13.280;2024-01-16T09:49:56;7.75;;;2.55;;
26261;SDS011;13988;52.446;13.280;2024-01-16T09:52:24;3.47;;;2.75;;
26261;SDS011;13988;52.446;13.280;2024-01-16T09:54:50;2.80;;;2.13;;
26261;SDS011;13988;52.446;13.280;2024-01-16T09:57:15;4.47;;;3.15;;
26261;SDS011;13988;52.446;13.280;2024-01-16T09:59:47;4.10;;;3.15;;
26261;SDS011;13988;52.446;13.280;2024-01-16T10:02:13;5.10;;;2.75;;
26261;SDS011;13988;52.446;13.280;2024-01-16T10:04:42;5.20;;;2.70;;
26261;SDS011;13988;52.446;13.280;2024-01-16T10:07:09;5.78;;;3.53;;
26261;SDS011;13988;52.446;13.280;2024-01-16T10:09:37;3.58;;;1.88;;
26261;SDS011;13988;52.446;13.280;2024-01-16T10:12:04;2.90;;;2.55;;
26261;SDS011;13988;52.446;13.280;2024-01-16T10:14:35;7.40;;;2.53;;
26261;SDS011;13988;52.446;13.280;2024-01-16T10:17:04;3.97;;;2.58;;
26261;SDS011;13988;52.446;13.280;2024-01-16T10:19:30;4.47;;;2.35;;
26261;SDS011;13988;52.446;13.280;2024-01-16T10:22:03;2.47;;;1.50;;
26261;SDS011;13988;52.446;13.280;2024-01-16T10:24:31;3.63;;;1.88;;
26261;SDS011;13988;52.446;13.280;2024-01-16T10:26:58;3.75;;;2.38;;
26261;SDS011;13988;52.446;13.280;2024-01-16T10:29:25;3.33;;;1.58;;
26261;SDS011;13988;52.446;13.280;2024-01-16T10:31:51;1.40;;;1.27;;
26261;SDS011;13988;52.446;13.280;2024-01-16T10:34:21;2.33;;;1.90;;
26261;SDS011;13988;52.446;13.280;2024-01-16T10:36:49;2.80;;;1.60;;
26261;SDS011;13988;52.446;13.280;2024-01-16T10:39:16;2.05;;;1.52;;
26261;SDS011;13988;52.446;13.280;2024-01-16T10:41:41;3.90;;;1.45;;
26261;SDS011;13988;52.446;13.280;2024-01-16T10:44:07;2.50;;;1.50;;
26261;SDS011;13988;52.446;13.280;2024-01-16T10:46:34;7.05;;;1.67;;
26261;SDS011;13988;52.446;13.280;2024-01-16T10:49:01;2.00;;;1.48;;
26261;SDS011;13988;52.446;13.280;2024-01-16T10:51:30;2.63;;;1.27;;
26261;SDS011;13988;52.446;13.280;2024-01-16T10:54:00;1.88;;;1.33;;
26261;SDS011;13988;52.446;13.280;2024-01-16T10:56:36;2.40;;;1.63;;
26261;SDS011;13988;52.446;13.280;2024-01-16T10:59:12;3.70;;;1.20;;
26261;SDS011;13988;52.446;13.280;2024-01-16T11:01:58;1.80;;;1.55;;
26261;SDS011;13988;52.446;13.280;2024-01-16T11:04:27;2.55;;;1.25;;
26261;SDS011;13988;52.446;13.280;2024-01-16T11:06:53;3.08;;;1.88;;
26261;SDS011;13988;52.446;13.280;2024-01-16T11:09:20;2.35;;;1.60;;
26261;SDS011;13988;52.446;13.280;2024-01-16T11:11:46;1.60;;;1.40;;
26261;SDS011;13988;52.446;13.280;2024-01-16T11:14:15;1.75;;;1.65;;
26261;SDS011;13988;52.446;13.280;2024-01-16T11:16:41;3.50;;;1.80;;
26261;SDS011;13988;52.446;13.280;2024-01-16T11:19:07;4.95;;;1.35;;
26261;SDS011;13988;52.446;13.280;2024-01-16T11:21:35;3.42;;;1.48;;
26261;SDS011;13988;52.446;13.280;2024-01-16T11:24:02;1.13;;;1.02;;
26261;SDS011;13988;52.446;13.280;2024-01-16T11:26:32;2.92;;;2.05;;
26261;SDS011;13988;52.446;13.280;2024-01-16T11:28:59;3.15;;;2.35;;
26261;SDS011;13988;52.446;13.280;2024-01-16T11:33:58;2.58;;;1.70;;
26261;SDS011;13988;52.446;13.280;2024-01-16T11:36:46;5.65;;;2.25;;
26261;SDS011;13988;52.446;13.280;2024-01-16T11:39:19;2.10;;;1.90;;
26261;SDS011;13988;52.446;13.280;2024-01-16T11:47:22;4.22;;;2.63;;
26261;SDS011;13988;52.446;13.280;2024-01-16T11:49:49;6.55;;;2.92;;
26261;SDS011;13988;52.446;13.280;2024-01-16T11:52:39;4.18;;;2.10;;
26261;SDS011;13988;52.446;13.280;2024-01-16T11:55:24;8.93;;;2.20;;
26261;SDS011;13988;52.446;13.280;2024-01-16T12:00:49;2.00;;;1.70;;
26261;SDS011;13988;52.446;13.280;2024-01-16T12:03:20;5.30;;;1.58;;
26261;SDS011;13988;52.446;13.280;2024-01-16T12:05:59;1.52;;;1.38;;
26261;SDS011;13988;52.446;13.280;2024-01-16T12:08:25;2.70;;;1.67;;
26261;SDS011;13988;52.446;13.280;2024-01-16T12:10:52;2.90;;;1.70;;
26261;SDS011;13988;52.446;13.280;2024-01-16T12:13:17;9.45;;;2.90;;
26261;SDS011;13988;52.446;13.280;2024-01-16T12:15:43;1.98;;;1.45;;
26261;SDS011;13988;52.446;13.280;2024-01-16T12:18:10;5.13;;;2.15;;
26261;SDS011;13988;52.446;13.280;2024-01-16T12:20:43;2.65;;;2.25;;
26261;SDS011;13988;52.446;13.280;2024-01-16T12:23:09;4.00;;;1.90;;
26261;SDS011;13988;52.446;13.280;2024-01-16T12:25:35;3.28;;;1.80;;
26261;SDS011;13988;52.446;13.280;2024-01-16T12:28:03;3.15;;;1.88;;
26261;SDS011;13988;52.446;13.280;2024-01-16T12:30:30;3.72;;;1.73;;
26261;SDS011;13988;52.446;13.280;2024-01-16T12:35:39;1.83;;;1.40;;
26261;SDS011;13988;52.446;13.280;2024-01-16T12:38:06;2.00;;;1.85;;
26261;SDS011;13988;52.446;13.280;2024-01-16T12:40:36;4.13;;;2.33;;
26261;SDS011;13988;52.446;13.280;2024-01-16T12:43:08;4.38;;;1.60;;
26261;SDS011;13988;52.446;13.280;2024-01-16T12:45:36;3.85;;;1.50;;
26261;SDS011;13988;52.446;13.280;2024-01-16T12:48:03;2.88;;;2.30;;
26261;SDS011;13988;52.446;13.280;2024-01-16T12:50:29;2.72;;;1.73;;
26261;SDS011;13988;52.446;13.280;2024-01-16T12:53:03;6.32;;;2.53;;
26261;SDS011;13988;52.446;13.280;2024-01-16T12:55:31;1.77;;;1.60;;
26261;SDS011;13988;52.446;13.280;2024-01-16T12:58:13;6.80;;;2.25;;
26261;SDS011;13988;52.446;13.280;2024-01-16T13:00:38;7.85;;;1.83;;
26261;SDS011;13988;52.446;13.280;2024-01-16T13:03:07;4.97;;;1.92;;
26261;SDS011;13988;52.446;13.280;2024-01-16T13:05:39;2.85;;;2.10;;
26261;SDS011;13988;52.446;13.280;2024-01-16T13:08:05;4.38;;;1.60;;
26261;SDS011;13988;52.446;13.280;2024-01-16T13:10:30;9.55;;;1.88;;
26261;SDS011;13988;52.446;13.280;2024-01-16T13:13:15;8.25;;;1.70;;
26261;SDS011;13988;52.446;13.280;2024-01-16T13:18:20;6.95;;;2.33;;
26261;SDS011;13988;52.446;13.280;2024-01-16T13:20:48;1.88;;;1.33;;
26261;SDS011;13988;52.446;13.280;2024-01-16T13:23:15;4.50;;;1.90;;
26261;SDS011;13988;52.446;13.280;2024-01-16T13:25:44;5.18;;;2.75;;
26261;SDS011;13988;52.446;13.280;2024-01-16T13:28:15;2.38;;;2.15;;
26261;SDS011;13988;52.446;13.280;2024-01-16T13:30:42;2.55;;;1.38;;
26261;SDS011;13988;52.446;13.280;2024-01-16T13:33:08;4.80;;;1.90;;
26261;SDS011;13988;52.446;13.280;2024-01-16T13:35:34;14.32;;;3.38;;
26261;SDS011;13988;52.446;13.280;2024-01-16T13:38:04;4.25;;;1.52;;
26261;SDS011;13988;52.446;13.280;2024-01-16T13:40:30;5.95;;;2.10;;
26261;SDS011;13988;52.446;13.280;2024-01-16T13:42:56;4.03;;;2.28;;
26261;SDS011;13988;52.446;13.280;2024-01-16T13:45:22;4.72;;;2.22;;
26261;SDS011;13988;52.446;13.280;2024-01-16T13:47:48;3.63;;;1.67;;
26261;SDS011;13988;52.446;13.280;2024-01-16T13:50:14;2.33;;;1.77;;
26261;SDS011;13988;52.446;13.280;2024-01-16T13:52:40;2.00;;;1.70;;
26261;SDS011;13988;52.446;13.280;2024-01-16T13:55:07;6.30;;;2.08;;
26261;SDS011;13988;52.446;13.280;2024-01-16T13:57:32;6.10;;;1.75;;
26261;SDS011;13988;52.446;13.280;2024-01-16T14:00:05;1.88;;;1.30;;
26261;SDS011;13988;52.446;13.280;2024-01-16T14:02:32;2.97;;;1.70;;
26261;SDS011;13988;52.446;13.280;2024-01-16T14:05:00;4.47;;;1.77;;
26261;SDS011;13988;52.446;13.280;2024-01-16T14:07:26;2.28;;;1.70;;
26261;SDS011;13988;52.446;13.280;2024-01-16T14:09:51;3.13;;;1.92;;
26261;SDS011;13988;52.446;13.280;2024-01-16T14:12:17;3.15;;;1.80;;
26261;SDS011;13988;52.446;13.280;2024-01-16T14:14:44;4.60;;;1.55;;
26261;SDS011;13988;52.446;13.280;2024-01-16T14:17:10;5.15;;;2.30;;
26261;SDS011;13988;52.446;13.280;2024-01-16T14:19:36;1.25;;;1.00;;
26261;SDS011;13988;52.446;13.280;2024-01-16T14:22:03;4.90;;;2.28;;
26261;SDS011;13988;52.446;13.280;2024-01-16T14:24:29;5.72;;;1.58;;
26261;SDS011;13988;52.446;13.280;2024-01-16T14:26:54;0.90;;;0.90;;
26261;SDS011;13988;52.446;13.280;2024-01-16T14:29:23;5.28;;;1.25;;
26261;SDS011;13988;52.446;13.280;2024-01-16T14:31:50;7.53;;;1.75;;
26261;SDS011;13988;52.446;13.280;2024-01-16T14:34:16;5.95;;;2.17;;
26261;SDS011;13988;52.446;13.280;2024-01-16T14:36:42;5.43;;;1.65;;
26261;SDS011;13988;52.446;13.280;2024-01-16T14:39:08;6.72;;;2.15;;
26261;SDS011;13988;52.446;13.280;2024-01-16T14:41:41;4.47;;;1.88;;
26261;SDS011;13988;52.446;13.280;2024-01-16T14:44:08;11.45;;;1.92;;
26261;SDS011;13988;52.446;13.280;2024-01-16T14:46:34;1.95;;;1.50;;
26261;SDS011;13988;52.446;13.280;2024-01-16T14:49:00;1.67;;;1.13;;